Terminal Aerodrome Forecast
Issued by NWS

Home | Current Version | Previous Version | Text Only | Print | Product List | Glossary On
Versions: 1 2 3 4 5 6 7 8 9 10 11 12 13 14
000
FTUS43 KOAX 180521
TAFCDR
TAF
KCDR 180521Z 1806/1906 26006KT P6SM BKN250
     FM180900 26006KT P6SM BKN200
     FM181800 25008KT P6SM BKN150
     FM190000 23005KT P6SM BKN150=

USA.gov is the U.S. government's official web portal to all federal, state and local government web resources and services.